This is the latest recevied weather packets stored in our database for station/object GW1544. If no packets are shown the sender has not sent any weather packets the latest 10 day(s).
| Time | Temp. | Humidity | Pressure | Rain* | Wind** | Luminosity | Snow |
|---|---|---|---|---|---|---|---|
| 1777906483 | 15.56° C | 75% | 1019.6 hPa | 0 mm | - | - | - |
| 1777903613 | 13.33° C | 81% | 1020.3 hPa | 0 mm | - | - | - |
| 1777902870 | 13.33° C | 81% | 1020.3 hPa | 0 mm | - | - | - |
| 1777902163 | 13.33° C | 82% | 1020.3 hPa | 0 mm | - | - | - |
| 1777898905 | 11.67° C | 84% | 1020.3 hPa | 0 mm | - | - | - |
| 1777896405 | 11.11° C | 81% | 1019.9 hPa | 0 mm | - | - | - |
| 1777895323 | 11.67° C | 73% | 1020.3 hPa | 0 mm | - | - | - |
| 1777892430 | 10.56° C | 72% | 1019.3 hPa | 0 mm | - | - | - |
| 1777888488 | 10° C | 73% | 1019.6 hPa | 0 mm | - | - | - |
| 1777888097 | 10° C | 73% | 1019.6 hPa | 0 mm | - | - | - |
| 1777885574 | 9.44° C | 80% | 1019.9 hPa | 0 mm | - | - | - |
| 1777884141 | 8.89° C | 83% | 1020.3 hPa | 0 mm | - | - | - |
| 1777882695 | 8.89° C | 83% | 1020.3 hPa | 0 mm | - | - | - |
| 1777882336 | 8.89° C | 83% | 1020.3 hPa | 0 mm | - | - | - |
| 1777880176 | 8.89° C | 83% | 1020.3 hPa | 0 mm | - | - | - |
| 1777873000 | 11.67° C | 68% | 1021.6 hPa | 0 mm | - | - | - |
| 1777868671 | 10.56° C | 77% | 1022 hPa | 0 mm | - | - | - |
| 1777867604 | 11.11° C | 77% | 1022.3 hPa | 0 mm | - | - | - |
| 1777865772 | 11.11° C | 76% | 1022.3 hPa | 0 mm | - | - | - |
| 1777865436 | 11.11° C | 77% | 1022 hPa | 0 mm | - | - | - |
| 1777863254 | 2.22° C | 88% | 1026 hPa | 0 mm | - | - | - |
| 1777862540 | 2.22° C | 88% | 1026 hPa | 0 mm | - | - | - |
| 1777861827 | 2.22° C | 88% | 1026 hPa | 0 mm | - | - | - |
| 1777861114 | 2.22° C | 88% | 1026 hPa | 0 mm | - | - | - |
| 1777860380 | 2.22° C | 88% | 1026 hPa | 0 mm | - | - | - |
* Rain since midnight (hover to see other rain measurements)
** Current wind speed in m/s (hover to see current wind gust speed)